METAR Data
IDs: Format: Raw Decoded Include TAF

Data at: 0800 UTC 23 Sep 2018

KSNK 230755Z AUTO 33005KT 10SM CLR 15/14 A3007 RMK AO2 T01470137
KSNK 230735Z AUTO 32004KT 10SM CLR 15/14 A3008 RMK AO2 T01510138
KSNK 230715Z AUTO 33004KT 10SM CLR 16/14 A3008 RMK AO2 T01550140
KSNK 230655Z AUTO 34004KT 10SM CLR 16/14 A3008 RMK AO2 T01550141
KSNK 230635Z AUTO 34004KT 10SM CLR 16/14 A3008 RMK AO2 T01550142
KSNK 230615Z AUTO 33003KT 10SM CLR 16/14 A3009 RMK AO2 T01560144
KSNK 230555Z AUTO 00000KT 10SM CLR 16/15 A3009 RMK AO2 T01580147
KSNK 230535Z AUTO 36004KT 10SM CLR 16/15 A3009 RMK AO2 T01600150
KSNK 230515Z AUTO 35004KT 10SM CLR 16/15 A3009 RMK AO2 T01640151
KSNK 230455Z AUTO 36006KT 10SM CLR 17/15 A3009 RMK AO2 T01680152
KSNK 230435Z AUTO 01004KT 10SM CLR 17/15 A3009 RMK AO2 T01730152
KSNK 230415Z AUTO 02003KT 10SM CLR 18/15 A3010 RMK AO2 T01770151
KSNK 230355Z AUTO 03004KT 10SM CLR 18/15 A3010 RMK AO2 T01820150
KSNK 230335Z AUTO 04005KT 10SM CLR 19/15 A3010 RMK AO2 T01850148
KSNK 230315Z AUTO 04005KT 10SM CLR 19/14 A3010 RMK AO2 T01860143
KSNK 230255Z AUTO 05005KT 10SM CLR 19/14 A3010 RMK AO2 T01890140
KSNK 230235Z AUTO 04005KT 10SM CLR 19/14 A3010 RMK AO2 T01920138
KSNK 230215Z AUTO 02004KT 10SM CLR 20/14 A3009 RMK AO2 T01950136
KSNK 230155Z AUTO 02006KT 10SM CLR 20/13 A3008 RMK AO2 T02020132
KSNK 230135Z AUTO 01007KT 10SM CLR 21/13 A3008 RMK AO2 T02070129
KSNK 230115Z AUTO 01007KT 10SM CLR 21/13 A3007 RMK AO2 T02110126
KSNK 230055Z AUTO 02008KT 10SM CLR 22/13 A3008 RMK AO2 T02160127
KSNK 230035Z AUTO 02010KT 10SM SCT100 22/13 A3008 RMK AO2 T02200127
KSNK 230015Z AUTO 02011G15KT 10SM OVC100 23/13 A3008 RMK AO2 T02250125
KSNK 222355Z AUTO 02011G18KT 10SM BKN100 23/13 A3007 RMK AO2 T02290125
KSNK 222335Z AUTO 03011KT 10SM SCT100 23/12 A3007 RMK AO2 T02300124
KSNK 222315Z AUTO 03013KT 10SM SCT070 23/12 A3007 RMK AO2 T02300124
KSNK 222255Z AUTO 01013G18KT 10SM SCT070 SCT095 23/13 A3007 RMK AO2 T02270125
KSNK 222235Z AUTO 02011G20KT 10SM SCT070 BKN095 22/12 A3007 RMK AO2 T02240124
KSNK 222215Z AUTO 01012G17KT 10SM BKN070 OVC095 22/12 A3007 RMK AO2 T02230122
KSNK 222155Z AUTO 01016G19KT 10SM OVC060 22/12 A3007 RMK AO2 T02220122
KSNK 222135Z AUTO 02016G26KT 10SM BKN060 BKN075 OVC090 22/12 A3007 RMK AO2 LTG DSNT SE T02230124
KSNK 222115Z AUTO 01013G22KT 10SM SCT060 OVC075 22/13 A3008 RMK AO2 T02190125
KSNK 222055Z AUTO 02015G21KT 10SM SCT060 OVC075 22/13 A3008 RMK AO2 T02180128
KSNK 222035Z AUTO 35019G22KT 10SM SCT060 OVC075 22/13 A3009 RMK AO2 T02150126
KSNK 222015Z AUTO 02015G20KT 10SM SCT035 BKN050 OVC075 22/13 A3010 RMK AO2 T02150129
KSNK 221955Z AUTO 36018G28KT 10SM BKN035 OVC075 22/13 A3011 RMK AO2 T02150132
KSNK 221935Z AUTO 01014G19KT 10SM SCT031 OVC075 21/13 A3012 RMK AO2 T02050134
KSNK 221915Z AUTO 02013G20KT 10SM SCT027 OVC031 20/14 A3013 RMK AO2 T01980139
KSNK 221855Z AUTO 36017G24KT 10SM OVC026 19/14 A3014 RMK AO2 T01940141
KSNK 221835Z AUTO 01015G20KT 10SM BKN024 OVC031 19/14 A3015 RMK AO2 T01910142
KSNK 221815Z AUTO 01015G23KT 10SM OVC022 19/14 A3016 RMK AO2 T01920142
KSNK 221755Z AUTO 02014KT 10SM OVC022 19/14 A3016 RMK AO2 LTG DSNT E T01900141
KSNK 221735Z AUTO 36019G26KT 10SM OVC022 19/14 A3016 RMK AO2 T01870140
KSNK 221715Z AUTO 02015KT 10SM OVC020 18/14 A3017 RMK AO2 T01810139
KSNK 221655Z AUTO 01017G24KT 10SM OVC018 18/14 A3016 RMK AO2 T01750140
KSNK 221635Z AUTO 01014G24KT 10SM OVC016 17/14 A3017 RMK AO2 T01660142
KSNK 221615Z AUTO 36016G23KT 10SM OVC014 16/14 A3017 RMK AO2 T01600139
KSNK 221555Z AUTO 36020G24KT 10SM SCT007 OVC014 15/14 A3017 RMK AO2 T01500140
KSNK 221535Z AUTO 36016KT 5SM BR BKN007 OVC014 14/14 A3017 RMK AO2 T01410140
KSNK 221515Z AUTO 36016G22KT 2 1/2SM BR OVC007 14/14 A3017 RMK AO2 VIS 1 3/4V4 T01370136
KSNK 221455Z AUTO 35019G23KT 1 3/4SM -DZ OVC007 14/13 A3017 RMK AO2 T01350134
KSNK 221435Z AUTO 35016G20KT 3SM BR OVC007 13/13 A3017 RMK AO2 T01340131
KSNK 221415Z AUTO 36018G23KT 5SM BR OVC009 14/13 A3017 RMK AO2 T01350130
KSNK 221355Z AUTO 35015G22KT 10SM OVC013 14/13 A3016 RMK AO2 T01360127
KSNK 221335Z AUTO 35016G20KT 10SM OVC013 13/13 A3016 RMK AO2 T01340125
KSNK 221315Z AUTO 36014G19KT 10SM OVC011 13/13 A3017 RMK AO2 T01290126
KSNK 221255Z AUTO 36013KT 4SM BR OVC009 13/13 A3016 RMK AO2 T01270126
KSNK 221235Z AUTO 36013KT 10SM BKN009 OVC014 13/13 A3016 RMK AO2 T01270126
KSNK 221215Z AUTO 36014KT 5SM BR BKN007 OVC011 13/13 A3016 RMK AO2 T01270126
KSNK 221155Z AUTO 35017G22KT 4SM -DZ BKN007 OVC012 13/13 A3015 RMK AO2 T01270127
KSNK 221135Z AUTO 36015G20KT 5SM RA BKN009 OVC012 13/13 A3015 RMK AO2 T01280127
KSNK 221115Z AUTO 36019G24KT 5SM -DZ OVC009 13/13 A3014 RMK AO2 T01310130
KSNK 221055Z AUTO 36016KT 5SM RA OVC011 13/13 A3014 RMK AO2 T01340130
KSNK 221035Z AUTO 36017G23KT 10SM OVC011 13/13 A3014 RMK AO2 T01340130
KSNK 221015Z AUTO 36019G24KT 10SM OVC013 13/13 A3013 RMK AO2 T01320130
KSNK 220955Z AUTO 36018G24KT 5SM BR OVC011 13/13 A3013 RMK AO2 T01320130
KSNK 220935Z AUTO 36017G27KT 7SM OVC012 13/13 A3013 RMK AO2 T01340128
KSNK 220915Z AUTO 36017G23KT 7SM BKN012 OVC018 13/13 A3014 RMK AO2 T01330130
KSNK 220855Z AUTO 36016G23KT 5SM BR SCT010 SCT013 OVC020 13/13 A3014 RMK AO2 T01320129
KSNK 220835Z AUTO 36019G22KT 5SM BR BKN012 OVC017 13/13 A3015 RMK AO2 T01330126
KSNK 220815Z AUTO 36021G24KT 5SM -RA OVC016 14/13 A3015 RMK AO2 T01360125
KSNK 220755Z AUTO 36018G28KT 7SM OVC016 14/12 A3016 RMK AO2 LTG DSNT E T01390120
KSNK 220735Z AUTO 36018G24KT 10SM OVC018 14/12 A3016 RMK AO2 T01420116
KSNK 220715Z AUTO 36019G26KT 7SM OVC018 14/12 A3016 RMK AO2 T01410119
KSNK 220655Z AUTO 35021G28KT 7SM OVC016 14/12 A3016 RMK AO2 T01420122
KSNK 220635Z AUTO 36018G28KT 7SM OVC014 14/13 A3016 RMK AO2 T01440129
KSNK 220615Z AUTO 36024G29KT 5SM -DZ OVC010 15/14 A3017 RMK AO2 T01480140
KSNK 220555Z AUTO 35018G22KT 5SM -RA OVC010 15/14 A3017 RMK AO2 T01510143
KSNK 220535Z AUTO 36020G28KT 7SM OVC010 16/15 A3017 RMK AO2 T01550145
KSNK 220515Z AUTO 36017G26KT 10SM OVC014 16/15 A3017 RMK AO2 T01610148
KSNK 220455Z AUTO 36021G26KT 10SM OVC014 16/15 A3017 RMK AO2 T01640152
KSNK 220435Z AUTO 01021G25KT 10SM OVC014 17/16 A3017 RMK AO2 T01670156
KSNK 220415Z AUTO 01016G25KT 10SM OVC014 17/16 A3016 RMK AO2 T01700161
KSNK 220355Z AUTO 01016G23KT 10SM OVC012 17/16 A3016 RMK AO2 T01730164
KSNK 220335Z AUTO 01016G23KT 10SM OVC014 18/17 A3016 RMK AO2 T01750168
KSNK 220315Z AUTO 01015G21KT 10SM BKN010 BKN018 OVC025 18/17 A3015 RMK AO2 T01750171
KSNK 220255Z AUTO 01018G26KT 4SM -RA BKN010 OVC014 18/17 A3015 RMK AO2 T01770173
KSNK 220235Z AUTO 02018G28KT 5SM RA OVC008 18/18 A3013 RMK AO2 T01790176
KSNK 220215Z AUTO 01018G25KT 4SM -RA OVC008 18/18 A3012 RMK AO2 T01810180
KSNK 220155Z AUTO 01017G28KT 4SM -RA BKN006 OVC010 18/18 A3011 RMK AO2 T01830183
KSNK 220135Z AUTO 03016G22KT 4SM RA OVC006 18/18 A3010 RMK AO2 T01840184
KSNK 220115Z AUTO 02014G22KT 4SM -RA BKN006 OVC011 18/18 A3009 RMK AO2 T01830183
KSNK 220055Z AUTO 03019G26KT 4SM RA OVC008 18/18 A3009 RMK AO2 LTG DSNT SE T01840184
KSNK 220035Z AUTO 02017G23KT 2SM -RA OVC006 18/18 A3007 RMK AO2 T01830183
KSNK 220015Z AUTO 02017G27KT 2SM -RA OVC006 19/19 A3007 RMK AO2 T01850185
KSNK 212355Z AUTO 02016G23KT 2SM -RA OVC006 19/19 A3006 RMK AO2 LTG DSNT S T01850185
KSNK 212335Z AUTO 01014G22KT 2 1/2SM -RA OVC008 19/19 A3005 RMK AO2 LTG DSNT S T01850185
KSNK 212315Z AUTO 02016G25KT 3SM -RA OVC008 19/18 A3005 RMK AO2 T01850184
KSNK 212255Z AUTO 02017G27KT 4SM -RA OVC008 18/18 A3004 RMK AO2 T01840184
KSNK 212235Z AUTO 02021G34KT 4SM -RA OVC008 19/19 A3004 RMK AO2 T01860186
KSNK 212215Z AUTO 02021G29KT 3SM -RA OVC008 19/19 A3002 RMK AO2 T01920190
KSNK 212155Z AUTO 01017G22KT 3SM -RA OVC008 20/20 A3002 RMK AO2 T01980197
KSNK 212135Z AUTO 02015G24KT 3SM -RA OVC008 20/20 A3001 RMK AO2 T02010200
KSNK 212115Z AUTO 01019G27KT 3SM -RA OVC008 20/20 A3000 RMK AO2 T02030202
KSNK 212055Z AUTO 01016G24KT 2 1/2SM -RA OVC008 21/20 A2999 RMK AO2 T02050204
KSNK 212035Z AUTO 02012G20KT 2SM RA OVC008 21/20 A2999 RMK AO2 T02050203
KSNK 212015Z AUTO 02016G23KT 4SM RA OVC008 21/20 A2999 RMK AO2 LTG DSNT S T02060201